createdAt,value
2022-09-04T00:02:35.160Z,100682.21
2022-09-04T00:05:18.987Z,100678.20
2022-09-04T00:08:03.184Z,100678.96
2022-09-04T00:10:42.758Z,100680.73
2022-09-04T00:13:19.791Z,100681.98
2022-09-04T00:15:59.008Z,100682.42
2022-09-04T00:18:36.525Z,100685.05
2022-09-04T00:21:14.764Z,100687.98
2022-09-04T00:23:53.156Z,100688.96
2022-09-04T00:26:39.832Z,100687.88
2022-09-04T00:29:18.903Z,100690.28
2022-09-04T00:31:59.714Z,100689.45
2022-09-04T00:34:43.348Z,100690.54
2022-09-04T00:37:22.465Z,100690.98
2022-09-04T00:39:59.718Z,100690.65
2022-09-04T00:42:49.043Z,100690.02
2022-09-04T00:45:35.221Z,100690.70
2022-09-04T00:48:34.612Z,100693.95
2022-09-04T00:51:30.955Z,100696.13
2022-09-04T00:54:18.643Z,100695.67
2022-09-04T00:57:18.666Z,100699.32
2022-09-04T01:00:06.175Z,100706.02
2022-09-04T01:02:56.806Z,100704.63
2022-09-04T01:05:41.020Z,100706.09
2022-09-04T01:08:25.009Z,100708.09
2022-09-04T01:11:09.413Z,100707.02
2022-09-04T01:13:44.669Z,100710.27
2022-09-04T01:16:23.537Z,100712.27
2022-09-04T01:19:00.484Z,100714.04
2022-09-04T01:21:48.609Z,100715.39
2022-09-04T01:24:40.272Z,100720.54
2022-09-04T01:27:16.727Z,100715.63
2022-09-04T01:29:57.992Z,100715.09
2022-09-04T01:32:44.985Z,100719.72
2022-09-04T01:35:29.146Z,100725.69
2022-09-04T01:38:08.553Z,100725.57
2022-09-04T01:40:51.035Z,100727.41
2022-09-04T01:43:24.303Z,100724.78
2022-09-04T01:46:16.431Z,100729.48
2022-09-04T01:48:55.606Z,100731.83
2022-09-04T01:51:35.397Z,100729.68
2022-09-04T01:54:23.250Z,100730.87
2022-09-04T01:57:09.716Z,100736.16
2022-09-04T01:59:53.924Z,100732.58
2022-09-04T02:02:30.596Z,100732.41
2022-09-04T02:05:13.692Z,100727.85
2022-09-04T02:07:50.310Z,100728.99
2022-09-04T02:10:36.885Z,100727.63
2022-09-04T02:13:22.503Z,100726.09
2022-09-04T02:16:08.429Z,100723.06
2022-09-04T02:18:51.530Z,100720.47
2022-09-04T02:21:32.456Z,100722.04
2022-09-04T02:24:15.995Z,100727.21
2022-09-04T02:26:53.929Z,100724.86
2022-09-04T02:29:35.086Z,100728.10
2022-09-04T02:32:18.643Z,100729.57
2022-09-04T02:34:57.147Z,100725.25
2022-09-04T02:37:37.982Z,100726.73
2022-09-04T02:40:18.723Z,100728.76
2022-09-04T02:43:06.716Z,100730.04
2022-09-04T02:45:46.394Z,100726.61
2022-09-04T02:48:26.041Z,100726.84
2022-09-04T02:51:14.783Z,100723.80
2022-09-04T02:53:57.886Z,100722.00
2022-09-04T02:56:41.133Z,100722.81
2022-09-04T02:59:29.704Z,100729.47
2022-09-04T03:02:04.106Z,100726.15
2022-09-04T03:04:42.818Z,100726.51
2022-09-04T03:07:21.947Z,100728.55
2022-09-04T03:10:00.477Z,100729.77
2022-09-04T03:12:40.010Z,100730.48
2022-09-04T03:15:20.971Z,100731.16
2022-09-04T03:18:01.945Z,100732.42
2022-09-04T03:20:40.544Z,100733.31
2022-09-04T03:23:17.080Z,100733.48
2022-09-04T03:26:06.031Z,100736.27
2022-09-04T03:28:52.783Z,100738.54
2022-09-04T03:31:34.237Z,100734.02
2022-09-04T03:34:19.877Z,100733.04
2022-09-04T03:37:08.347Z,100737.68
2022-09-04T03:39:51.536Z,100738.50
2022-09-04T03:42:33.470Z,100743.91
2022-09-04T03:45:17.390Z,100741.98
2022-09-04T03:48:03.078Z,100746.54
2022-09-04T03:50:43.391Z,100742.81
2022-09-04T03:53:23.928Z,100743.97
2022-09-04T03:56:18.801Z,100740.55
2022-09-04T03:59:02.023Z,100743.92
2022-09-04T04:01:48.573Z,100745.77
2022-09-04T04:05:00.645Z,100748.22
2022-09-04T04:07:41.791Z,100748.56
2022-09-04T04:10:23.882Z,100751.94
2022-09-04T04:13:26.465Z,100749.39
2022-09-04T04:16:13.585Z,100751.52
2022-09-04T04:19:13.713Z,100753.18
2022-09-04T04:22:01.555Z,100758.14
2022-09-04T04:24:48.218Z,100764.91
2022-09-04T04:27:37.117Z,100766.75
2022-09-04T04:30:15.194Z,100769.06
2022-09-04T04:33:16.667Z,100774.02
2022-09-04T04:35:57.491Z,100775.41
2022-09-04T04:38:40.590Z,100775.38
2022-09-04T04:41:56.430Z,100775.88
2022-09-04T04:44:50.982Z,100779.73
2022-09-04T04:47:35.426Z,100779.66
2022-09-04T04:50:20.268Z,100778.24
2022-09-04T04:53:05.410Z,100776.75
2022-09-04T04:55:49.336Z,100778.65
2022-09-04T04:58:42.121Z,100785.09
2022-09-04T05:01:26.424Z,100785.59
2022-09-04T05:04:09.300Z,100782.57
2022-09-04T05:06:48.898Z,100789.20
2022-09-04T05:09:30.838Z,100788.42
2022-09-04T05:12:10.558Z,100785.98
2022-09-04T05:14:53.388Z,100786.21
2022-09-04T05:17:32.841Z,100781.77
2022-09-04T05:20:24.772Z,100781.83
2022-09-04T05:23:06.987Z,100785.77
2022-09-04T05:25:46.995Z,100783.43
2022-09-04T05:28:29.448Z,100784.34
2022-09-04T05:31:14.135Z,100783.97
2022-09-04T05:33:59.344Z,100784.95
2022-09-04T05:36:42.764Z,100783.65
2022-09-04T05:39:23.534Z,100783.41
2022-09-04T05:42:13.489Z,100789.16
2022-09-04T05:44:59.138Z,100790.02
2022-09-04T05:47:43.368Z,100794.45
2022-09-04T05:50:27.969Z,100789.95
2022-09-04T05:53:27.919Z,100792.23
2022-09-04T05:56:21.176Z,100792.73
2022-09-04T05:59:04.290Z,100790.15
2022-09-04T06:01:59.046Z,100792.33
2022-09-04T06:04:50.760Z,100789.86
2022-09-04T06:07:30.725Z,100791.10
2022-09-04T06:10:11.647Z,100795.77
2022-09-04T06:13:18.164Z,100791.73
2022-09-04T06:15:57.683Z,100789.77
2022-09-04T06:18:48.028Z,100795.19
2022-09-04T06:21:46.986Z,100795.46
2022-09-04T06:24:45.910Z,100796.38
2022-09-04T06:27:36.247Z,100803.73
2022-09-04T06:30:12.508Z,100803.46
2022-09-04T06:33:06.214Z,100803.37
2022-09-04T06:35:57.462Z,100799.63
2022-09-04T06:38:57.212Z,100805.27
2022-09-04T06:41:55.764Z,100806.50
2022-09-04T06:44:40.992Z,100812.02
2022-09-04T06:47:29.263Z,100813.19
2022-09-04T06:50:17.274Z,100812.52
2022-09-04T06:53:04.522Z,100813.71
2022-09-04T06:55:45.780Z,100809.25
2022-09-04T06:58:43.605Z,100813.02
2022-09-04T07:01:21.186Z,100811.54
2022-09-04T07:04:05.515Z,100813.62
2022-09-04T07:06:48.976Z,100817.86
2022-09-04T07:09:26.223Z,100820.64
2022-09-04T07:12:21.966Z,100820.95
2022-09-04T07:15:21.527Z,100819.84
2022-09-04T07:18:04.188Z,100816.38
2022-09-04T07:20:42.378Z,100816.54
2022-09-04T07:23:32.674Z,100816.65
2022-09-04T07:26:17.310Z,100818.60
2022-09-04T07:29:00.962Z,100821.40
2022-09-04T07:31:41.029Z,100822.69
2022-09-04T07:34:20.295Z,100822.95
2022-09-04T07:36:59.311Z,100826.86
2022-09-04T07:39:41.307Z,100829.55
2022-09-04T07:42:19.880Z,100826.03
2022-09-04T07:45:03.131Z,100827.83
2022-09-04T07:47:42.578Z,100835.05
2022-09-04T07:50:19.597Z,100830.08
2022-09-04T07:53:13.815Z,100833.64
2022-09-04T07:55:47.957Z,100832.17
2022-09-04T07:58:49.481Z,100832.83
2022-09-04T08:01:43.477Z,100835.87
2022-09-04T08:04:33.485Z,100835.38
2022-09-04T08:07:11.518Z,100839.09
2022-09-04T08:10:15.365Z,100839.60
2022-09-04T08:13:06.133Z,100833.95
2022-09-04T08:15:49.310Z,100838.67
2022-09-04T08:18:53.316Z,100837.80
2022-09-04T08:21:30.409Z,100839.35
2022-09-04T08:24:41.335Z,100835.46
2022-09-04T08:27:27.953Z,100838.81
2022-09-04T08:30:09.910Z,100841.17
2022-09-04T08:32:57.583Z,100844.49
2022-09-04T08:35:34.279Z,100853.20
2022-09-04T08:38:33.043Z,100857.33
2022-09-04T08:41:29.537Z,100856.03
2022-09-04T08:44:29.024Z,100855.91
2022-09-04T08:47:24.535Z,100859.45
2022-09-04T08:50:18.722Z,100856.45
2022-09-04T08:53:18.181Z,100858.08
2022-09-04T08:55:56.937Z,100852.36
2022-09-04T08:59:10.524Z,100847.61
2022-09-04T09:02:12.080Z,100855.73
2022-09-04T09:05:11.175Z,100854.78
2022-09-04T09:08:14.872Z,100857.39
2022-09-04T09:11:14.566Z,100855.95
2022-09-04T09:14:34.661Z,100855.63
2022-09-04T09:17:17.065Z,100844.55
2022-09-04T09:19:59.915Z,100844.38
2022-09-04T09:23:09.459Z,100845.41
2022-09-04T09:25:52.385Z,100851.45
2022-09-04T09:29:13.385Z,100849.56
2022-09-04T09:32:34.427Z,100850.20
2022-09-04T09:36:02.741Z,100844.30
2022-09-04T09:39:01.644Z,100837.84
2022-09-04T09:41:59.610Z,100834.06
2022-09-04T09:45:08.885Z,100838.58
2022-09-04T09:48:20.049Z,100834.72
2022-09-04T09:51:28.705Z,100840.85
2022-09-04T09:54:48.622Z,100843.96
2022-09-04T09:58:02.416Z,100847.95
2022-09-04T10:00:46.621Z,100845.71
2022-09-04T10:04:06.860Z,100844.60
2022-09-04T10:07:22.726Z,100846.96
2022-09-04T10:10:18.455Z,100843.00
2022-09-04T10:13:19.907Z,100843.50
2022-09-04T10:16:20.750Z,100840.77
2022-09-04T10:19:39.409Z,100840.42
2022-09-04T10:22:49.977Z,100840.00
2022-09-04T10:25:48.729Z,100839.02
2022-09-04T10:28:47.467Z,100840.84
2022-09-04T10:31:48.888Z,100838.30
2022-09-04T10:34:40.745Z,100835.98
2022-09-04T10:37:25.550Z,100834.56
2022-09-04T10:40:35.630Z,100836.80
2022-09-04T10:43:32.134Z,100840.89
2022-09-04T10:46:20.687Z,100840.54
2022-09-04T10:49:28.180Z,100842.77
2022-09-04T10:52:48.535Z,100843.87
2022-09-04T10:55:27.315Z,100844.16
2022-09-04T10:58:27.702Z,100842.77
2022-09-04T11:01:23.015Z,100841.83
2022-09-04T11:04:21.032Z,100837.98
2022-09-04T11:07:33.112Z,100839.17
2022-09-04T11:10:29.019Z,100839.15
2022-09-04T11:13:25.494Z,100846.16
2022-09-04T11:16:11.486Z,100848.75
2022-09-04T11:19:11.161Z,100843.32
2022-09-04T11:22:14.764Z,100844.14
2022-09-04T11:25:27.974Z,100842.51
2022-09-04T11:28:50.481Z,100839.11
2022-09-04T11:31:47.337Z,100841.64
2022-09-04T11:34:58.244Z,100840.88
2022-09-04T11:37:57.926Z,100846.88
2022-09-04T11:41:02.586Z,100845.44
2022-09-04T11:43:56.589Z,100843.52
2022-09-04T11:46:52.851Z,100838.27
2022-09-04T11:49:57.421Z,100844.93
2022-09-04T11:52:42.035Z,100840.17
2022-09-04T11:55:35.460Z,100839.34
2022-09-04T11:58:32.936Z,100835.73
2022-09-04T12:01:23.501Z,100829.46
2022-09-04T12:04:28.356Z,100831.60
2022-09-04T12:07:12.479Z,100832.92
2022-09-04T12:10:09.106Z,100828.94
2022-09-04T12:13:15.659Z,100832.33
2022-09-04T12:16:10.413Z,100829.04
2022-09-04T12:19:28.043Z,100827.08
2022-09-04T12:22:37.739Z,100825.38
2022-09-04T12:25:39.678Z,100825.61
2022-09-04T12:28:39.212Z,100830.23
2022-09-04T12:31:29.142Z,100829.21
2022-09-04T12:34:21.115Z,100829.85
2022-09-04T12:37:19.944Z,100831.70
2022-09-04T12:40:14.484Z,100833.23
2022-09-04T12:42:53.104Z,100827.77
2022-09-04T12:45:35.355Z,100829.06
2022-09-04T12:48:15.492Z,100831.36
2022-09-04T12:50:55.992Z,100827.08
2022-09-04T12:53:52.033Z,100827.76
2022-09-04T12:56:35.808Z,100824.52
2022-09-04T12:59:29.536Z,100821.42
2022-09-04T13:02:09.339Z,100817.80
2022-09-04T13:04:55.812Z,100821.08
2022-09-04T13:07:41.838Z,100824.80
2022-09-04T13:10:23.954Z,100827.21
2022-09-04T13:13:06.245Z,100826.98
2022-09-04T13:15:58.134Z,100825.14
2022-09-04T13:18:43.361Z,100824.70
2022-09-04T13:21:27.678Z,100831.11
2022-09-04T13:24:12.788Z,100828.75
2022-09-04T13:27:00.730Z,100830.38
2022-09-04T13:29:46.187Z,100825.52
2022-09-04T13:32:36.065Z,100822.45
2022-09-04T13:35:19.705Z,100829.30
2022-09-04T13:38:16.270Z,100828.92
2022-09-04T13:41:12.739Z,100831.31
2022-09-04T13:44:04.371Z,100827.02
2022-09-04T13:46:42.516Z,100833.23
2022-09-04T13:49:19.098Z,100835.75
2022-09-04T13:51:59.504Z,100836.86
2022-09-04T13:54:35.222Z,100841.50
2022-09-04T13:57:15.194Z,100839.23
2022-09-04T13:59:55.611Z,100835.98
2022-09-04T14:02:31.872Z,100837.84
2022-09-04T14:05:10.805Z,100835.67
2022-09-04T14:07:46.352Z,100835.88
2022-09-04T14:10:23.070Z,100834.33
2022-09-04T14:13:12.536Z,100833.44
2022-09-04T14:16:06.823Z,100832.52
2022-09-04T14:19:00.136Z,100825.79
2022-09-04T14:22:06.914Z,100822.31
2022-09-04T14:24:47.860Z,100820.49
2022-09-04T14:27:30.800Z,100823.58
2022-09-04T14:30:09.196Z,100825.86
2022-09-04T14:32:58.017Z,100822.54
2022-09-04T14:35:35.947Z,100820.81
2022-09-04T14:38:27.927Z,100825.05
2022-09-04T14:41:11.777Z,100824.93
2022-09-04T14:44:03.909Z,100824.38
2022-09-04T14:46:47.515Z,100826.74
2022-09-04T14:49:29.391Z,100830.05
2022-09-04T14:52:10.651Z,100834.77
2022-09-04T14:54:46.784Z,100835.70
2022-09-04T14:57:26.999Z,100837.06
2022-09-04T15:00:10.419Z,100837.31
2022-09-04T15:02:48.050Z,100836.29
2022-09-04T15:05:24.454Z,100840.89
2022-09-04T15:08:01.078Z,100839.92
2022-09-04T15:10:47.099Z,100839.14
2022-09-04T15:13:51.727Z,100838.63
2022-09-04T15:16:30.593Z,100835.08
2022-09-04T15:19:13.558Z,100836.24
2022-09-04T15:21:56.854Z,100833.72
2022-09-04T15:24:34.553Z,100831.48
2022-09-04T15:27:16.507Z,100832.54
2022-09-04T15:30:07.018Z,100829.85
2022-09-04T15:32:42.763Z,100829.12
2022-09-04T15:35:23.092Z,100828.35
2022-09-04T15:38:08.456Z,100829.30
2022-09-04T15:41:05.700Z,100829.08
2022-09-04T15:43:47.990Z,100830.41
2022-09-04T15:46:35.182Z,100827.59
2022-09-04T15:49:23.000Z,100832.09
2022-09-04T15:52:04.009Z,100831.87
2022-09-04T15:54:57.259Z,100830.60
2022-09-04T15:57:36.388Z,100834.34
2022-09-04T16:00:15.164Z,100839.52
2022-09-04T16:02:56.879Z,100843.16
2022-09-04T16:05:41.650Z,100843.55
2022-09-04T16:08:23.795Z,100843.66
2022-09-04T16:11:04.377Z,100848.16
2022-09-04T16:13:58.309Z,100848.27
2022-09-04T16:16:35.823Z,100846.68
2022-09-04T16:19:17.418Z,100851.52
2022-09-04T16:22:01.826Z,100852.91
2022-09-04T16:24:41.378Z,100857.36
2022-09-04T16:27:17.557Z,100860.46
2022-09-04T16:29:56.814Z,100865.00
2022-09-04T16:32:31.870Z,100866.42
2022-09-04T16:35:09.154Z,100864.98
2022-09-04T16:37:46.857Z,100868.65
2022-09-04T16:40:30.128Z,100875.98
2022-09-04T16:43:09.810Z,100880.36
2022-09-04T16:45:49.850Z,100884.48
2022-09-04T16:48:34.837Z,100885.34
2022-09-04T16:51:39.285Z,100886.31
2022-09-04T16:54:12.025Z,100886.50
2022-09-04T16:56:50.948Z,100885.52
2022-09-04T16:59:30.055Z,100891.91
2022-09-04T17:02:09.007Z,100899.56
2022-09-04T17:04:45.343Z,100902.48
2022-09-04T17:07:22.689Z,100908.99
2022-09-04T17:10:03.788Z,100911.45
2022-09-04T17:12:52.639Z,100916.27
2022-09-04T17:15:32.053Z,100922.50
2022-09-04T17:18:09.617Z,100921.35
2022-09-04T17:21:58.326Z,100924.38
2022-09-04T17:28:59.006Z,100926.85
2022-09-04T17:29:11.751Z,100927.01
2022-09-04T17:29:41.745Z,100930.96
2022-09-04T17:32:35.466Z,100934.88
2022-09-04T17:40:43.588Z,100936.92
2022-09-04T17:40:49.542Z,100946.89
2022-09-04T17:41:31.265Z,100948.67
2022-09-04T17:44:29.491Z,100956.55
2022-09-04T17:47:19.682Z,100962.19
2022-09-04T17:49:54.324Z,100967.27
2022-09-04T17:52:29.242Z,100969.30
2022-09-04T17:55:06.388Z,100968.11
2022-09-04T17:57:55.215Z,100970.65
2022-09-04T18:00:32.986Z,100972.48
2022-09-04T18:03:14.019Z,100979.65
2022-09-04T18:05:53.492Z,100979.49
2022-09-04T18:08:33.998Z,100985.86
2022-09-04T18:11:14.655Z,100992.87
2022-09-04T18:13:55.001Z,100993.30
2022-09-04T18:16:54.472Z,100992.47
2022-09-04T18:19:47.282Z,100996.17
2022-09-04T18:22:33.225Z,100994.02
2022-09-04T18:25:16.125Z,100992.92
2022-09-04T18:28:11.756Z,100999.71
2022-09-04T18:37:07.962Z,100999.52
2022-09-04T18:37:21.503Z,101006.45
2022-09-04T18:37:26.723Z,101002.33
2022-09-04T18:40:08.794Z,101006.78
2022-09-04T18:48:51.012Z,101011.52
2022-09-04T18:50:29.502Z,101014.71
2022-09-04T18:50:50.077Z,101018.66
2022-09-04T18:51:51.121Z,101021.67
2022-09-04T18:54:28.735Z,101023.40
2022-09-04T18:57:06.419Z,101024.80
2022-09-04T18:59:44.516Z,101022.56
2022-09-04T19:02:21.968Z,101026.33
2022-09-04T19:04:58.089Z,101028.27
2022-09-04T19:07:34.494Z,101029.71
2022-09-04T19:10:22.271Z,101033.39
2022-09-04T19:13:03.955Z,101035.86
2022-09-04T19:15:49.754Z,101039.23
2022-09-04T19:18:31.431Z,101040.73
2022-09-04T19:21:24.537Z,101041.73
2022-09-04T19:24:04.087Z,101047.45
2022-09-04T19:26:43.501Z,101050.41
2022-09-04T19:29:21.189Z,101047.98
2022-09-04T19:31:58.924Z,101051.43
2022-09-04T19:34:39.237Z,101050.38
2022-09-04T19:38:58.881Z,101056.95
2022-09-04T19:46:07.277Z,101057.48
2022-09-04T19:46:15.050Z,101063.15
2022-09-04T19:46:32.331Z,101069.13
2022-09-04T19:50:13.003Z,101072.58
2022-09-04T19:53:36.656Z,101072.70
2022-09-04T19:55:24.433Z,101077.52
2022-09-04T19:58:08.680Z,101078.59
2022-09-04T20:00:47.760Z,101077.34
2022-09-04T20:03:29.629Z,101076.55
2022-09-04T20:06:21.523Z,101081.39
2022-09-04T20:09:02.833Z,101078.80
2022-09-04T20:11:40.768Z,101080.89
2022-09-04T20:14:22.944Z,101087.52
2022-09-04T20:17:14.999Z,101094.56
2022-09-04T20:19:50.638Z,101097.32
2022-09-04T20:22:33.563Z,101100.40
2022-09-04T20:25:32.069Z,101103.41
2022-09-04T20:28:21.410Z,101106.10
2022-09-04T20:31:33.295Z,101112.42
2022-09-04T20:34:16.998Z,101110.39
2022-09-04T20:36:52.720Z,101109.73
2022-09-04T20:39:34.532Z,101112.76
2022-09-04T20:42:11.081Z,101112.88
2022-09-04T20:46:38.354Z,101115.00
2022-09-04T20:52:41.029Z,101116.60
2022-09-04T20:53:05.208Z,101124.16
2022-09-04T20:53:51.839Z,101130.08
2022-09-04T20:57:17.124Z,101132.33
2022-09-04T21:03:15.015Z,101135.95
2022-09-04T21:03:17.247Z,101138.48
2022-09-04T21:06:04.297Z,101143.45
2022-09-04T21:08:47.840Z,101142.00
2022-09-04T21:11:40.848Z,101145.29
2022-09-04T21:14:21.672Z,101144.03
2022-09-04T21:17:29.084Z,101146.93
2022-09-04T21:20:43.437Z,101152.31
2022-09-04T21:24:10.219Z,101159.88
2022-09-04T21:27:03.022Z,101163.54
2022-09-04T21:29:57.846Z,101162.59
2022-09-04T21:32:48.641Z,101166.40
2022-09-04T21:35:26.206Z,101167.15
2022-09-04T21:38:13.875Z,101172.15
2022-09-04T21:41:06.958Z,101171.64
2022-09-04T21:44:11.623Z,101171.05
2022-09-04T21:47:08.441Z,101174.09
2022-09-04T21:50:23.085Z,101177.75
2022-09-04T21:53:19.234Z,101182.00
2022-09-04T22:02:26.547Z,101181.71
2022-09-04T22:02:36.669Z,101188.34
2022-09-04T22:02:54.344Z,101191.92
2022-09-04T22:05:41.022Z,101190.45
2022-09-04T22:13:32.114Z,101194.46
2022-09-04T22:13:38.394Z,101193.95
2022-09-04T22:14:35.172Z,101195.78
2022-09-04T22:17:24.556Z,101196.56
2022-09-04T22:20:19.764Z,101193.25
2022-09-04T22:23:20.035Z,101194.04
2022-09-04T22:26:24.240Z,101194.50
2022-09-04T22:29:22.059Z,101193.27
2022-09-04T22:32:22.904Z,101198.46
2022-09-04T22:35:35.971Z,101195.20
2022-09-04T22:38:35.555Z,101197.33
2022-09-04T22:41:33.370Z,101197.59
2022-09-04T22:44:18.431Z,101196.71
2022-09-04T22:47:25.684Z,101196.16
2022-09-04T22:50:19.689Z,101200.52
2022-09-04T22:53:15.121Z,101201.52
2022-09-04T22:56:06.603Z,101206.74
2022-09-04T22:59:27.600Z,101205.77
2022-09-04T23:03:06.562Z,101213.61
2022-09-04T23:06:11.309Z,101213.59
2022-09-04T23:13:44.522Z,101213.04
2022-09-04T23:14:02.409Z,101212.00
2022-09-04T23:15:10.002Z,101213.52
2022-09-04T23:18:31.293Z,101212.27
2022-09-04T23:26:34.483Z,101214.56
2022-09-04T23:26:44.139Z,101214.95
2022-09-04T23:27:30.257Z,101214.39
2022-09-04T23:30:25.629Z,101218.45
2022-09-04T23:33:27.433Z,101214.38
2022-09-04T23:36:37.357Z,101211.94
2022-09-04T23:39:49.842Z,101212.33
2022-09-04T23:43:07.419Z,101211.63
2022-09-04T23:46:18.178Z,101211.52
2022-09-04T23:49:36.552Z,101211.83
2022-09-04T23:52:50.279Z,101213.77
2022-09-04T23:55:53.377Z,101209.64
2022-09-04T23:59:22.496Z,101211.79
